Time,TemperatureF,DewpointF,PressureIn,WindDirection,WindDirectionDegrees,WindSpeedMPH,WindSpeedGustMPH,Humidity,HourlyPrecipIn,Conditions,Clouds,dailyrainin,SoftwareType,DateUTC
2014-02-07 00:00:00,26.2,15.7,30.32,NE,54,1.0,5.0,64,0.00,OVC,,0.00,WeatherDisplay:10.37,2014-02-07 05:00:00,
2014-02-07 00:15:00,26.2,15.7,30.26,NE,46,1.0,3.0,64,0.00,OVC,,0.00,WeatherDisplay:10.37,2014-02-07 05:15:00,
2014-02-07 00:30:00,26.1,15.9,30.29,NNW,346,2.0,4.0,65,0.00,OVC,,0.00,WeatherDisplay:10.37,2014-02-07 05:30:00,
2014-02-07 00:45:00,25.9,16.1,30.29,NE,49,1.0,6.0,66,0.00,OVC,,0.00,WeatherDisplay:10.37,2014-02-07 05:45:00,
2014-02-07 01:00:00,25.9,16.1,30.29,NE,38,2.0,4.0,66,0.00,OVC,,0.00,WeatherDisplay:10.37,2014-02-07 06:00:00,
2014-02-07 01:15:00,25.7,15.9,30.29,North,6,1.0,5.0,66,0.00,OVC,,0.00,WeatherDisplay:10.37,2014-02-07 06:15:00,
2014-02-07 01:30:00,25.3,15.9,30.29,North,7,1.0,3.0,67,0.00,OVC,,0.00,WeatherDisplay:10.37,2014-02-07 06:30:00,
2014-02-07 01:45:00,25.3,15.9,30.29,NE,48,2.0,3.0,67,0.00,OVC,,0.00,WeatherDisplay:10.37,2014-02-07 06:45:00,
2014-02-07 02:00:00,25.2,15.7,30.29,NE,42,1.0,3.0,67,0.00,OVC,,0.00,WeatherDisplay:10.37,2014-02-07 07:00:00,
2014-02-07 02:15:00,24.8,15.7,30.26,NE,40,1.0,2.0,68,0.00,OVC,,0.00,WeatherDisplay:10.37,2014-02-07 07:15:00,
2014-02-07 02:30:00,24.8,16.1,30.29,NE,43,1.0,3.0,69,0.00,OVC,,0.00,WeatherDisplay:10.37,2014-02-07 07:30:00,
2014-02-07 02:45:00,25.0,16.2,30.29,NNE,21,2.0,3.0,69,0.00,OVC,,0.00,WeatherDisplay:10.37,2014-02-07 07:45:00,
2014-02-07 03:00:00,25.2,16.7,30.29,NE,48,2.0,3.0,70,0.00,OVC,,0.00,WeatherDisplay:10.37,2014-02-07 08:00:00,
2014-02-07 03:15:00,25.5,17.1,30.29,NE,51,2.0,3.0,70,0.00,OVC,,0.00,WeatherDisplay:10.37,2014-02-07 08:15:00,
2014-02-07 03:30:00,25.7,17.3,30.29,NE,48,2.0,5.0,70,0.00,OVC,,0.00,WeatherDisplay:10.37,2014-02-07 08:30:00,
2014-02-07 03:45:00,25.9,17.1,30.29,NE,52,2.0,5.0,69,0.00,OVC,,0.00,WeatherDisplay:10.37,2014-02-07 08:45:00,
2014-02-07 04:00:00,25.9,17.1,30.29,ENE,68,1.0,4.0,69,0.00,OVC,,0.00,WeatherDisplay:10.37,2014-02-07 09:00:00,
2014-02-07 04:15:00,25.7,16.6,30.29,NE,35,2.0,3.0,68,0.00,OVC,,0.00,WeatherDisplay:10.37,2014-02-07 09:15:00,
2014-02-07 04:30:00,25.7,16.6,30.32,ENE,57,1.0,4.0,68,0.00,OVC,,0.00,WeatherDisplay:10.37,2014-02-07 09:30:00,
2014-02-07 04:45:00,25.7,16.6,30.29,NE,50,2.0,4.0,68,0.00,OVC,,0.00,WeatherDisplay:10.37,2014-02-07 09:45:00,
2014-02-07 05:00:00,25.7,16.6,30.26,East,80,0.0,3.0,68,0.00,OVC,,0.00,WeatherDisplay:10.37,2014-02-07 10:00:00,
2014-02-07 05:15:00,25.9,16.8,30.29,NE,52,1.0,2.0,68,0.00,OVC,,0.00,WeatherDisplay:10.37,2014-02-07 10:15:00,
2014-02-07 05:30:00,25.9,16.8,30.29,NE,39,3.0,5.0,68,0.00,OVC,,0.00,WeatherDisplay:10.37,2014-02-07 10:30:00,
2014-02-07 05:45:00,25.9,16.8,30.29,NE,39,2.0,5.0,68,0.00,OVC,,0.00,WeatherDisplay:10.37,2014-02-07 10:45:00,
2014-02-07 06:00:00,25.9,16.8,30.29,ENE,58,1.0,6.0,68,0.00,OVC,,0.00,WeatherDisplay:10.37,2014-02-07 11:00:00,
2014-02-07 06:15:00,25.9,16.4,30.29,ENE,69,0.0,5.0,67,0.00,OVC,,0.00,WeatherDisplay:10.37,2014-02-07 11:15:00,
2014-02-07 06:30:00,25.9,16.4,30.29,NE,49,1.0,2.0,67,0.00,OVC,,0.00,WeatherDisplay:10.37,2014-02-07 11:30:00,
2014-02-07 06:45:00,25.9,16.4,30.29,North,349,0.0,3.0,67,0.00,OVC,,0.00,WeatherDisplay:10.37,2014-02-07 11:45:00,
2014-02-07 07:00:00,25.9,16.4,30.29,ENE,58,2.0,4.0,67,0.00,OVC,,0.00,WeatherDisplay:10.37,2014-02-07 12:00:00,
2014-02-07 07:15:00,25.9,16.4,30.29,NE,48,1.0,5.0,67,0.00,OVC,,0.00,WeatherDisplay:10.37,2014-02-07 12:15:00,
2014-02-07 07:30:00,25.9,16.4,30.29,North,7,1.0,4.0,67,0.00,OVC,,0.00,WeatherDisplay:10.37,2014-02-07 12:30:00,
2014-02-07 07:45:00,26.1,16.2,30.32,North,357,2.0,5.0,66,0.00,OVC,,0.00,WeatherDisplay:10.37,2014-02-07 12:45:00,
2014-02-07 08:00:00,26.2,16.8,30.32,North,11,2.0,3.0,67,0.00,OVC,,0.00,WeatherDisplay:10.37,2014-02-07 13:00:00,
2014-02-07 08:15:00,26.6,16.8,30.32,North,9,0.0,3.0,66,0.00,OVC,,0.00,WeatherDisplay:10.37,2014-02-07 13:15:00,
2014-02-07 08:30:00,27.0,17.1,30.32,NE,41,2.0,5.0,66,0.00,OVC,,0.00,WeatherDisplay:10.37,2014-02-07 13:30:00,
2014-02-07 08:45:00,27.9,17.6,30.32,NE,55,2.0,4.0,65,0.00,OVC,,0.00,WeatherDisplay:10.37,2014-02-07 13:45:00,
2014-02-07 09:00:00,28.0,17.1,30.32,NE,49,3.0,5.0,63,0.00,OVC,,0.00,WeatherDisplay:10.37,2014-02-07 14:00:00,
2014-02-07 09:15:00,28.8,17.4,30.34,North,10,2.0,5.0,62,0.00,OVC,,0.00,WeatherDisplay:10.37,2014-02-07 14:15:00,
2014-02-07 09:30:00,29.5,17.7,30.32,NE,56,1.0,3.0,61,0.00,OVC,,0.00,WeatherDisplay:10.37,2014-02-07 14:30:00,
2014-02-07 09:45:00,30.0,17.8,30.34,NE,43,2.0,4.0,60,0.00,OVC,,0.00,WeatherDisplay:10.37,2014-02-07 14:45:00,
2014-02-07 10:00:00,30.6,17.9,30.34,North,1,2.0,4.0,59,0.00,OVC,,0.00,WeatherDisplay:10.37,2014-02-07 15:00:00,
2014-02-07 10:15:00,31.1,18.0,30.34,NE,41,2.0,4.0,58,0.00,OVC,,0.00,WeatherDisplay:10.37,2014-02-07 15:15:00,
2014-02-07 10:30:00,31.8,17.9,30.34,NNE,28,1.0,3.0,56,0.00,OVC,,0.00,WeatherDisplay:10.37,2014-02-07 15:30:00,
2014-02-07 10:45:00,32.2,17.8,30.34,NW,321,1.0,3.0,55,0.00,OVC,,0.00,WeatherDisplay:10.37,2014-02-07 15:45:00,
2014-02-07 11:00:00,31.6,17.3,30.34,NW,315,2.0,5.0,55,0.00,OVC,,0.00,WeatherDisplay:10.37,2014-02-07 16:00:00,
2014-02-07 11:15:00,33.3,18.4,30.34,WNW,290,2.0,5.0,54,0.00,OVC,,0.00,WeatherDisplay:10.37,2014-02-07 16:15:00,
2014-02-07 11:30:00,35.2,20.2,30.34,West,276,1.0,3.0,54,0.00,OVC,,0.00,WeatherDisplay:10.37,2014-02-07 16:30:00,
2014-02-07 11:45:00,36.0,19.6,30.34,NNW,333,2.0,5.0,51,0.00,OVC,,0.00,WeatherDisplay:10.37,2014-02-07 16:45:00,
2014-02-07 12:00:00,35.8,18.5,30.34,WNW,293,2.0,5.0,49,0.00,OVC,,0.00,WeatherDisplay:10.37,2014-02-07 17:00:00,
2014-02-07 12:15:00,36.1,19.2,30.32,West,259,2.0,4.0,50,0.00,OVC,,0.00,WeatherDisplay:10.37,2014-02-07 17:15:00,
2014-02-07 12:30:00,34.9,17.6,30.32,WSW,246,1.0,5.0,49,0.00,OVC,,0.00,WeatherDisplay:10.37,2014-02-07 17:30:00,
2014-02-07 12:45:00,35.6,18.8,30.32,WSW,245,1.0,3.0,50,0.00,OVC,,0.00,WeatherDisplay:10.37,2014-02-07 17:45:00,
2014-02-07 13:00:00,37.3,19.9,30.29,East,89,1.0,5.0,49,0.00,OVC,,0.00,WeatherDisplay:10.37,2014-02-07 18:00:00,
2014-02-07 13:15:00,40.4,21.2,30.29,East,95,1.0,5.0,46,0.00,BKN,,0.00,WeatherDisplay:10.37,2014-02-07 18:15:00,
2014-02-07 13:30:00,38.7,17.5,30.29,West,264,3.0,6.0,42,0.00,BKN,,0.00,WeatherDisplay:10.37,2014-02-07 18:30:00,
2014-02-07 13:45:00,40.7,19.9,30.29,North,11,1.0,5.0,43,0.00,BKN,,0.00,WeatherDisplay:10.37,2014-02-07 18:45:00,
2014-02-07 14:00:00,42.4,20.9,30.29,NNW,327,2.0,5.0,42,0.00,BKN,,0.00,WeatherDisplay:10.37,2014-02-07 19:00:00,
2014-02-07 14:15:00,40.5,18.6,30.26,West,267,2.0,5.0,41,0.00,BKN,,0.00,WeatherDisplay:10.37,2014-02-07 19:15:00,
2014-02-07 14:30:00,41.7,19.7,30.29,NNE,33,2.0,4.0,41,0.00,BKN,,0.00,WeatherDisplay:10.37,2014-02-07 19:30:00,
2014-02-07 14:45:00,42.4,19.8,30.29,NE,50,3.0,6.0,40,0.00,BKN,,0.00,WeatherDisplay:10.37,2014-02-07 19:45:00,
2014-02-07 15:00:00,40.3,18.4,30.29,SW,217,1.0,6.0,41,0.00,BKN,,0.00,WeatherDisplay:10.37,2014-02-07 20:00:00,
2014-02-07 15:15:00,41.5,19.5,30.26,WSW,250,1.0,5.0,41,0.00,BKN,,0.00,WeatherDisplay:10.37,2014-02-07 20:15:00,
2014-02-07 15:30:00,42.4,19.8,30.26,West,277,1.0,3.0,40,0.00,BKN,,0.00,WeatherDisplay:10.37,2014-02-07 20:30:00,
2014-02-07 15:45:00,42.1,19.5,30.29,North,7,3.0,6.0,40,0.00,BKN,,0.00,WeatherDisplay:10.37,2014-02-07 20:45:00,
2014-02-07 16:00:00,41.0,18.5,30.29,NNW,330,2.0,5.0,40,0.00,BKN,,0.00,WeatherDisplay:10.37,2014-02-07 21:00:00,
2014-02-07 16:15:00,41.5,18.9,30.29,WNW,300,2.0,6.0,40,0.00,BKN,,0.00,WeatherDisplay:10.37,2014-02-07 21:15:00,
2014-02-07 16:30:00,40.6,18.2,30.26,NNE,19,2.0,5.0,40,0.00,BKN,,0.00,WeatherDisplay:10.37,2014-02-07 21:30:00,
2014-02-07 16:45:00,40.3,17.9,30.26,ESE,118,1.0,3.0,40,0.00,BKN,,0.00,WeatherDisplay:10.37,2014-02-07 21:45:00,
2014-02-07 17:00:00,39.9,17.5,30.26,WSW,252,1.0,3.0,40,0.00,BKN,,0.00,WeatherDisplay:10.37,2014-02-07 22:00:00,
2014-02-07 17:15:00,39.5,17.1,30.23,NNE,22,2.0,4.0,40,0.00,BKN,,0.00,WeatherDisplay:10.37,2014-02-07 22:15:00,
2014-02-07 17:30:00,38.5,16.8,30.23,North,6,1.0,3.0,41,0.00,BKN,,0.00,WeatherDisplay:10.37,2014-02-07 22:30:00,
2014-02-07 17:45:00,37.4,15.8,30.23,NE,44,2.0,3.0,41,0.00,BKN,,0.00,WeatherDisplay:10.37,2014-02-07 22:45:00,
2014-02-07 18:00:00,36.6,15.7,30.23,NE,36,1.0,3.0,42,0.00,BKN,,0.00,WeatherDisplay:10.37,2014-02-07 23:00:00,
2014-02-07 18:15:00,35.6,15.3,30.23,NNE,28,1.0,2.0,43,0.00,BKN,,0.00,WeatherDisplay:10.37,2014-02-07 23:15:00,
2014-02-07 18:30:00,34.8,15.6,30.23,NE,39,1.0,2.0,45,0.00,BKN,,0.00,WeatherDisplay:10.37,2014-02-07 23:30:00,
2014-02-07 18:45:00,34.2,16.0,30.23,NNE,17,1.0,2.0,47,0.00,BKN,,0.00,WeatherDisplay:10.37,2014-02-07 23:45:00,
2014-02-07 19:00:00,33.8,16.2,30.23,ENE,60,1.0,2.0,48,0.00,BKN,,0.00,WeatherDisplay:10.37,2014-02-08 00:00:00,
2014-02-07 19:15:00,33.6,16.5,30.23,NNE,31,1.0,3.0,49,0.00,BKN,,0.00,WeatherDisplay:10.37,2014-02-08 00:15:00,
2014-02-07 19:30:00,33.5,16.8,30.23,ENE,64,1.0,5.0,50,0.00,BKN,,0.00,WeatherDisplay:10.37,2014-02-08 00:30:00,
2014-02-07 19:45:00,33.1,16.4,30.23,SW,224,0.0,3.0,50,0.00,BKN,,0.00,WeatherDisplay:10.37,2014-02-08 00:45:00,
2014-02-07 20:00:00,32.5,16.4,30.23,North,353,1.0,2.0,51,0.00,BKN,,0.00,WeatherDisplay:10.37,2014-02-08 01:00:00,
2014-02-07 20:15:00,32.7,16.6,30.23,North,2,1.0,2.0,51,0.00,OVC,,0.00,WeatherDisplay:10.37,2014-02-08 01:15:00,
2014-02-07 20:30:00,32.7,17.0,30.23,NNE,15,1.0,3.0,52,0.00,OVC,,0.00,WeatherDisplay:10.37,2014-02-08 01:30:00,
2014-02-07 20:45:00,32.7,17.0,30.23,NNE,23,1.0,3.0,52,0.00,OVC,,0.00,WeatherDisplay:10.37,2014-02-08 01:45:00,
2014-02-07 21:00:00,32.7,17.0,30.23,NE,39,1.0,2.0,52,0.00,OVC,,0.00,WeatherDisplay:10.37,2014-02-08 02:00:00,
2014-02-07 21:15:00,32.7,17.5,30.23,North,10,1.0,2.0,53,0.00,OVC,,0.00,WeatherDisplay:10.37,2014-02-08 02:15:00,
2014-02-07 21:30:00,32.7,17.5,30.23,North,9,1.0,4.0,53,0.00,OVC,,0.00,WeatherDisplay:10.37,2014-02-08 02:30:00,
2014-02-07 21:45:00,32.5,17.3,30.23,North,3,2.0,3.0,53,0.00,OVC,,0.00,WeatherDisplay:10.37,2014-02-08 02:45:00,
2014-02-07 22:00:00,32.5,17.3,30.23,NNE,19,1.0,3.0,53,0.00,OVC,,0.00,WeatherDisplay:10.37,2014-02-08 03:00:00,
2014-02-07 22:15:00,32.4,17.6,30.23,NNE,22,1.0,4.0,54,0.00,OVC,,0.00,WeatherDisplay:10.37,2014-02-08 03:15:00,
2014-02-07 22:30:00,32.4,17.6,30.23,NNE,25,1.0,3.0,54,0.00,OVC,,0.00,WeatherDisplay:10.37,2014-02-08 03:30:00,
2014-02-07 22:45:00,32.4,18.0,30.23,ENE,58,1.0,3.0,55,0.00,OVC,,0.00,WeatherDisplay:10.37,2014-02-08 03:45:00,
2014-02-07 23:00:00,32.2,17.8,30.23,NNE,25,0.0,4.0,55,0.00,OVC,,0.00,WeatherDisplay:10.37,2014-02-08 04:00:00,
2014-02-07 23:15:00,32.4,18.0,30.23,North,4,1.0,2.0,55,0.00,OVC,,0.00,WeatherDisplay:10.37,2014-02-08 04:15:00,
2014-02-07 23:30:00,32.2,17.8,30.20,North,11,2.0,3.0,55,0.00,OVC,,0.00,WeatherDisplay:10.37,2014-02-08 04:30:00,
2014-02-07 23:45:00,32.2,17.8,30.23,NNE,23,1.0,3.0,55,0.00,OVC,,0.00,WeatherDisplay:10.37,2014-02-08 04:45:00,